x

Buoy B01 - Western Maine Shelf (44030) Wave Buoy

9:04 - Mon 20th Oct 2014 All times are EDT. -4 hours from GMT.

  • Sig Wave height 2.3ft
  • Peak Period 11s
  • Wind
    11mph, 13mph gusts
  • Sea Temp 54°f
  • Ar Temp 54°f
  • Sea Pressure 1014mb
  • Buoy B01 - Western Maine Shelf
  • Buoy B01 - Western Maine Shelf

More Historic Weather Station data

Upgrade to MSW Pro to gain access to the past 30 days of data for over 8000 Wavebouys and Weather Stations around the globe.

Join Pro

Comparision Forecast

View Surf forecast
   
Seg 10/20 9:04 2.5ft 11s 11 13 mph 1014mb 54f 54f
8:04 1.6ft 3s 13 16 mph 1013.5mb 54f 54f
7:04 1.6ft 3s 11 13 mph 1013.5mb 54f 54f
6:04  -   -  11 13 mph 1013.4mb 54f 54f
5:04 2.5ft 11s 9
mph
1013mb 55f 53f
4:04 1.3ft 3s 13 16 mph 1013mb 55f 52f
3:04 2.5ft 11s 13 18 mph 1012.9mb 54f 51f
2:04  -   -  16 18 mph 1013.1mb 54f 49f
1:04 3.5ft 11s 18 22 mph 1013.9mb 55f 47f
12:04 3ft 11s 18 22 mph 1014.3mb 55f 46f
11:04 2ft 3s 16 18 mph 1014.6mb 56f 45f
10:04  -   -  18 20 mph 1014.9mb 56f 43f
9:04  -   -  16 20 mph 1014.8mb 56f 42f
8:04 2ft 3s 18 22 mph 1014.3mb 55f 42f
7:04 2ft 3s 18 25 mph 1013.8mb 55f 42f
6:04 2ft 3s 18 20 mph 1013.2mb 54f 42f
5:04 2.5ft 3s 20 25 mph 1013.2mb 54f 42f
4:04 2.5ft 3s 22 27 mph 1013mb 54f 43f
3:04 2.5ft 3s 20 27 mph 1012.6mb 54f 43f
2:04 2.5ft 3s 20 25 mph 1012.4mb 54f 44f
1:04 2.5ft 3s 22 27 mph 1011.8mb 55f 45f
12:04 2.5ft 3s 16 20 mph 1011.6mb 56f 45f
Dom 10/19 11:04 2.5ft 3s 18 22 mph 1011.2mb 56f 46f
10:04 2.5ft 4s 20 25 mph 1010.8mb 56f 47f
9:04 3ft 3s 25 29 mph 1010.2mb 56f 48f
8:04 3ft 4s 18 22 mph 1010mb 57f 48f
7:04 3ft 4s 25 29 mph 1009.3mb 57f 49f
6:04 2.5ft 3s 20 25 mph 1008.8mb 57f 50f
5:04 2.5ft 3s 16 20 mph 1008.2mb 57f 51f
4:04  -   -  20 27 mph 1007.2mb 57f 51f
3:04 5ft 11s 16 20 mph 1006.5mb 57f 52f
2:04 5ft 11s 9 11 mph 1006.3mb 57f 51f
1:04 5ft 11s 7 11 mph 1005mb 57f 50f
12:04  -   -  7 9 mph 1006.6mb 57f 51f
11:04 2ft 3s 11 13 mph 1006.3mb 56f 50f
10:04  -   -  13 16 mph 1006.3mb 56f 49f
9:04  -   -  16 20 mph 1005.8mb 56f 49f
8:04 4.5ft 11s 18 20 mph 1005.3mb 56f 50f
7:04  -   -  16 20 mph 1003.8mb 56f 51f
6:04  -   -  16 18 mph 1002.8mb 56f 52f
5:04  -   -  16 18 mph 1002mb 57f 53f
4:04  -   -  16 20 mph 1001.5mb 57f 53f
3:04 6ft 11s 18 22 mph 1000.7mb 57f 54f
2:04 5ft 11s 13 16 mph 1000.2mb 57f 55f
1:04 6ft 16s 11 13 mph 999.6mb 57f 56f
12:04 5ft 11s 11 13 mph 999.6mb 58f 57f
Sáb 10/18 11:04 6ft 11s 13 16 mph 999.1mb 58f 58f
10:04 6ft 11s 11 13 mph 998.8mb 58f 58f
9:04 4.5ft 11s 9 13 mph 998.8mb 58f 59f
8:04 4.5ft 11s 4 7 mph 998.1mb 58f 58f
7:04 4.5ft 11s 7
mph
998mb 58f 58f
6:04 5ft 11s 9 11 mph 997.7mb 58f 60f
5:04 5ft 11s 16 20 mph 996.7mb 58f 61f
4:04 6ft 11s 9 11 mph 996.7mb 58f 60f
3:04 6ft 11s 9 13 mph 997.4mb 58f 60f
2:04 6.5ft 11s 9
mph
998mb 58f 60f
1:04 6ft 11s 2 4 mph 998.8mb 58f 59f
12:04 6.5ft 11s 9 11 mph 999.4mb 57f 59f
11:04 6ft 11s 9 11 mph 1000mb 57f 58f
10:04 6ft 11s 9 11 mph 1000.3mb 57f 58f
9:04 6.5ft 11s 11 13 mph 1000.8mb 57f 58f
8:04 6ft 11s 13 16 mph 1000.9mb 58f 59f
7:04 5.5ft 11s 13 18 mph 1000.6mb 57f 58f
6:04 7ft 11s 16 20 mph 1000.7mb 58f 59f
5:04 7ft 11s 16 20 mph 1001.1mb 58f 59f
4:04 7.5ft 11s 18 20 mph 1001.4mb 58f 59f
3:04 7ft 11s 13 16 mph 1001.6mb 58f 59f
2:04 7ft 11s 11
mph
1002.3mb 58f 59f
1:04 6.5ft 11s 11 13 mph 1002.7mb 58f 59f
12:04 8ft 11s 13 16 mph 1002.9mb 58f 59f
Sex 10/17 11:04 6ft 11s 11 13 mph 1003.3mb 58f 60f
10:04 6ft 11s 13
mph
1003.1mb 58f 60f
9:04 5ft 11s 18 22 mph 1003.1mb 58f 61f
8:04 5ft 11s 11 13 mph 1002.6mb 58f 61f
7:04 4.5ft 11s 9 11 mph 1002.4mb 58f 60f
6:04 4.5ft 11s 9
mph
1002mb 58f 61f
5:04 5ft 11s 9
mph
1001.7mb 58f 62f
4:04 5ft 11s 9 11 mph 1001.6mb 58f 61f
3:04 5ft 11s 11 13 mph 1001.3mb 58f 60f
2:04 5ft 8s 13 16 mph 1001mb 58f 61f
1:04 5ft 8s 13 18 mph 1001.2mb 58f 60f
12:04 5ft 8s 11 13 mph 1001.4mb 58f 60f
11:04 4.5ft 8s 13 16 mph 1001.4mb 58f 60f
10:04 4ft 8s 13 16 mph 1001.3mb 57f 60f
9:04 4ft 8s 11 13 mph 1001.2mb 57f 59f
8:04 3.5ft 5s 11 13 mph 1001.2mb 57f 59f
7:04 3.5ft 8s 9 11 mph 1000.9mb 57f 58f
6:04 4.5ft 8s 9 13 mph 1001mb 58f 58f
5:04 4.5ft 8s 11 13 mph 1001.6mb 58f 58f
4:04 4.5ft 8s 9 11 mph 1001.5mb 58f 59f